Time;durP1;ratioP1;P1;durP2;ratioP2;P2;SDS_P1;SDS_P2;PMS_P1;PMS_P2;Temp;Humidity;BMP_temperature;BMP_pressure;BME280_temperature;BME280_humidity;BME280_pressure;Samples;Min_cycle;Max_cycle;Signal;HPM_P1;HPM_P2
2022/01/15 00:00:35;;;;;;;;;;;;;;;19.16;58.50;101067.44;5061512;28;1935;-37
2022/01/15 00:03:10;;;;;;;;;;;;;;;19.10;59.63;101068.84;5066393;28;1596;-37
2022/01/15 00:05:38;;;;;;;;;;;;;;;19.01;59.32;101083.84;5066321;28;1625;-36
2022/01/15 00:08:08;;;;;;;;;;;;;;;18.97;58.75;101090.44;5073909;28;1081;-37
2022/01/15 00:10:36;;;;;;;;;;;;;;;18.86;59.31;101094.00;5063518;28;1785;-37
2022/01/15 00:13:08;;;;;;;;;;;;;;;18.79;60.07;101102.66;5065061;28;1590;-37
2022/01/15 00:15:42;;;;;;;;;;;;;;;18.73;59.16;101105.81;5065591;28;1898;-37
2022/01/15 00:18:13;;;;;;;;;;;;;;;18.61;59.73;101089.78;5070590;28;1686;-37
2022/01/15 00:20:49;;;;;;;;;;;;;;;18.58;60.16;101094.53;5060987;28;1495;-37
2022/01/15 00:23:15;;;;;;;;;;;;;;;18.55;60.17;101103.66;5059319;28;2239;-37
2022/01/15 00:25:44;;;;;;;;;;;;;;;18.49;60.25;101101.47;5069273;28;1001;-36
2022/01/15 00:28:13;;;;;;;;;;;;;;;18.43;60.31;101116.22;5062209;28;1421;-37
2022/01/15 00:30:41;;;;;;;;;;;;;;;18.37;60.60;101131.94;5056365;28;1966;-37
2022/01/15 00:33:10;;;;;;;;;;;;;;;18.33;60.41;101139.34;5066771;28;2088;-36
2022/01/15 00:35:39;;;;;;;;;;;;;;;18.27;60.67;101123.78;5064889;28;1983;-37
2022/01/15 00:38:11;;;;;;;;;;;;;;;18.21;59.99;101130.47;5067638;28;1632;-36
2022/01/15 00:40:37;;;;;;;;;;;;;;;18.15;60.07;101104.19;5071365;28;1610;-37
2022/01/15 00:43:05;;;;;;;;;;;;;;;18.15;59.36;101114.88;5066501;28;1661;-36
2022/01/15 00:45:33;;;;;;;;;;;;;;;18.11;60.17;101115.25;5053555;28;1069;-36
2022/01/15 00:48:10;;;;;;;;;;;;;;;18.12;59.60;101141.03;5059888;28;1906;-37
2022/01/15 00:50:37;;;;;;;;;;;;;;;18.08;60.46;101137.75;5071679;28;1923;-37
2022/01/15 00:53:03;;;;;;;;;;;;;;;18.08;61.16;101135.06;5062983;28;1763;-36
2022/01/15 00:55:32;;;;;;;;;;;;;;;17.98;60.59;101151.00;5067442;28;1910;-37
2022/01/15 00:57:59;;;;;;;;;;;;;;;17.98;60.74;101158.19;5064352;28;1820;-37
2022/01/15 01:00:27;;;;;;;;;;;;;;;17.92;60.77;101155.97;5076394;28;1407;-37
2022/01/15 01:02:58;;;;;;;;;;;;;;;17.94;60.98;101165.59;5062368;28;1858;-36
2022/01/15 01:05:25;;;;;;;;;;;;;;;17.89;60.66;101157.91;5070321;28;1403;-37
2022/01/15 01:07:52;;;;;;;;;;;;;;;17.92;61.06;101164.00;5058698;28;1877;-37
2022/01/15 01:10:45;;;;;;;;;;;;;;;17.91;60.71;101165.00;5068492;28;1781;-37
2022/01/15 01:22:51;;;;;;;;;;;;;;;17.82;61.09;101163.81;5074904;28;1892;-37
2022/01/15 01:25:02;;;;;;;;;;;;;;;17.78;61.02;101165.88;5056613;28;1900;-37
2022/01/15 01:27:42;;;;;;;;;;;;;;;17.76;60.86;101169.66;5073933;28;1770;-36
2022/01/15 01:30:18;;;;;;;;;;;;;;;17.74;60.73;101164.41;5061036;28;1359;-37
2022/01/15 01:32:58;;;;;;;;;;;;;;;17.68;61.68;101167.56;5060198;28;1484;-38
2022/01/15 01:35:44;;;;;;;;;;;;;;;17.72;60.89;101152.97;5068932;28;1902;-38
2022/01/15 01:38:18;;;;;;;;;;;;;;;17.68;61.22;101172.91;5062734;28;1896;-38
2022/01/15 01:40:49;;;;;;;;;;;;;;;17.74;61.02;101175.09;5058964;28;1616;-37
2022/01/15 01:43:41;;;;;;;;;;;;;;;17.73;61.21;101170.75;5063995;28;1622;-37
2022/01/15 01:46:20;;;;;;;;;;;;;;;17.70;61.10;101154.91;5063247;28;1609;-37
2022/01/15 01:48:50;;;;;;;;;;;;;;;17.64;61.21;101171.44;5061282;28;1511;-36
2022/01/15 01:51:34;;;;;;;;;;;;;;;17.68;61.05;101178.25;5068871;28;1722;-37
2022/01/15 01:54:02;;;;;;;;;;;;;;;17.97;60.22;101180.56;5063198;28;1894;-38
2022/01/15 01:56:36;;;;;;;;;;;;;;;18.26;59.62;101187.19;5071143;28;1902;-38
2022/01/15 01:59:06;;;;;;;;;;;;;;;18.46;58.57;101171.34;5070040;28;1272;-37
2022/01/15 02:01:38;;;;;;;;;;;;;;;18.64;58.00;101175.25;5065450;28;1336;-37
2022/01/15 02:04:08;;;;;;;;;;;;;;;18.78;57.93;101173.25;5073892;28;2004;-35
2022/01/15 02:06:56;;;;;;;;;;;;;;;18.85;57.25;101167.31;5069800;28;1673;-37
2022/01/15 02:09:24;;;;;;;;;;;;;;;18.96;57.89;101177.19;5059480;28;1318;-37
2022/01/15 02:11:53;;;;;;;;;;;;;;;19.01;57.79;101176.78;5065967;28;1749;-37
2022/01/15 02:14:29;;;;;;;;;;;;;;;19.00;56.98;101170.59;5058739;28;1761;-37
2022/01/15 02:17:05;;;;;;;;;;;;;;;18.99;58.22;101176.91;5055807;28;1976;-37
2022/01/15 02:19:44;;;;;;;;;;;;;;;18.92;57.84;101173.06;5062630;28;1069;-35
2022/01/15 02:25:02;;;;;;;;;;;;;;;18.80;57.80;101174.03;5074317;28;1700;-35
2022/01/15 02:27:35;;;;;;;;;;;;;;;18.78;57.80;101192.91;5068226;28;1808;-36
2022/01/15 02:30:04;;;;;;;;;;;;;;;18.69;58.65;101183.75;5061915;28;2082;-37
2022/01/15 02:32:31;;;;;;;;;;;;;;;18.65;57.97;101179.63;5059853;28;1745;-36
2022/01/15 02:35:10;;;;;;;;;;;;;;;18.61;58.66;101185.34;5068689;28;1906;-37
2022/01/15 02:37:38;;;;;;;;;;;;;;;18.54;58.09;101176.09;5056170;28;1582;-37
2022/01/15 02:40:05;;;;;;;;;;;;;;;18.49;58.74;101203.25;5073981;28;1852;-37
2022/01/15 02:42:31;;;;;;;;;;;;;;;18.43;58.32;101209.09;5059951;28;1151;-37
2022/01/15 02:45:03;;;;;;;;;;;;;;;18.35;58.85;101193.63;5065441;28;2141;-37
2022/01/15 02:50:15;;;;;;;;;;;;;;;18.29;58.77;101202.16;5045869;28;2859;-37
2022/01/15 02:52:49;;;;;;;;;;;;;;;18.25;59.00;101212.22;5068824;28;1833;-37
2022/01/15 02:55:19;;;;;;;;;;;;;;;18.15;59.07;101205.91;5055514;28;1977;-36
2022/01/15 02:57:46;;;;;;;;;;;;;;;18.15;59.13;101200.53;5062174;28;1773;-37
2022/01/15 03:02:55;;;;;;;;;;;;;;;18.09;59.08;101217.94;5038765;22;1981;-37
2022/01/15 03:05:22;;;;;;;;;;;;;;;18.03;58.95;101222.91;5027119;28;1887;-37
2022/01/15 03:07:49;;;;;;;;;;;;;;;18.03;58.37;101233.63;5020600;28;1078;-36
2022/01/15 03:10:22;;;;;;;;;;;;;;;18.01;58.66;101243.59;5023434;28;1834;-36
2022/01/15 03:12:49;;;;;;;;;;;;;;;17.97;59.11;101229.59;5028619;28;1678;-37
2022/01/15 03:15:19;;;;;;;;;;;;;;;17.95;59.50;101231.53;5024688;28;1907;-37
2022/01/15 03:17:46;;;;;;;;;;;;;;;17.93;59.58;101229.94;5031489;28;1490;-36
2022/01/15 03:20:14;;;;;;;;;;;;;;;17.89;59.52;101246.22;5025498;28;1699;-38
2022/01/15 03:22:42;;;;;;;;;;;;;;;17.87;59.13;101248.16;5025626;28;1103;-36
2022/01/15 03:25:09;;;;;;;;;;;;;;;17.83;59.52;101243.13;5022765;28;1625;-37
2022/01/15 03:27:36;;;;;;;;;;;;;;;17.75;59.62;101229.50;5022175;28;2064;-36
2022/01/15 03:30:02;;;;;;;;;;;;;;;17.77;59.51;101232.91;5023846;28;1685;-37
2022/01/15 03:32:30;;;;;;;;;;;;;;;17.75;59.35;101251.72;5029106;28;1698;-37
2022/01/15 03:34:56;;;;;;;;;;;;;;;17.72;59.79;101262.66;5031244;28;1782;-37
2022/01/15 03:37:25;;;;;;;;;;;;;;;17.73;59.63;101267.03;5019139;28;1902;-37
2022/01/15 03:39:55;;;;;;;;;;;;;;;17.69;59.80;101277.13;5034471;28;1671;-38
2022/01/15 03:42:38;;;;;;;;;;;;;;;17.61;59.62;101266.13;5027903;28;1112;-36
2022/01/15 03:45:06;;;;;;;;;;;;;;;17.68;59.95;101278.06;5033211;28;1533;-37
2022/01/15 03:47:33;;;;;;;;;;;;;;;17.65;59.84;101272.97;5029110;28;1903;-37
2022/01/15 03:49:59;;;;;;;;;;;;;;;17.61;60.11;101279.50;5027864;28;1934;-37
2022/01/15 03:52:26;;;;;;;;;;;;;;;17.63;60.01;101295.44;5027877;28;1785;-36
2022/01/15 03:54:54;;;;;;;;;;;;;;;17.55;59.82;101287.09;5030599;28;1527;-37
2022/01/15 03:57:20;;;;;;;;;;;;;;;17.60;59.73;101295.66;5027843;28;1917;-37
2022/01/15 03:59:47;;;;;;;;;;;;;;;17.58;59.98;101278.88;5023802;28;1808;-37
2022/01/15 04:02:13;;;;;;;;;;;;;;;17.60;59.80;101292.97;5024587;28;1724;-36
2022/01/15 04:04:40;;;;;;;;;;;;;;;17.65;59.93;101298.88;5023501;28;1802;-36
2022/01/15 04:07:06;;;;;;;;;;;;;;;17.96;59.18;101308.13;5025403;28;1484;-37
2022/01/15 04:09:33;;;;;;;;;;;;;;;18.32;58.41;101310.81;5016923;28;1917;-37
2022/01/15 04:12:00;;;;;;;;;;;;;;;18.52;57.50;101310.13;5025795;28;1492;-37
2022/01/15 04:14:27;;;;;;;;;;;;;;;18.69;57.42;101311.50;5027212;28;1686;-37
2022/01/15 04:16:53;;;;;;;;;;;;;;;18.81;56.54;101320.44;5024804;28;1902;-37
2022/01/15 04:19:20;;;;;;;;;;;;;;;18.86;56.62;101312.88;5025517;28;1854;-37
2022/01/15 04:21:47;;;;;;;;;;;;;;;18.91;56.46;101329.44;5025746;28;1790;-36
2022/01/15 04:24:13;;;;;;;;;;;;;;;18.93;56.91;101330.19;5025804;28;1816;-37
2022/01/15 04:26:40;;;;;;;;;;;;;;;18.91;57.20;101329.44;5022825;28;1618;-36
2022/01/15 04:29:07;;;;;;;;;;;;;;;18.89;57.44;101331.41;5023042;28;1674;-37
2022/01/15 04:31:46;;;;;;;;;;;;;;;18.82;57.25;101344.44;5033699;28;1022;-37
2022/01/15 04:34:13;;;;;;;;;;;;;;;18.85;56.69;101364.78;5021329;28;2022;-37
2022/01/15 04:36:40;;;;;;;;;;;;;;;18.74;57.10;101351.31;5021688;28;1899;-37
2022/01/15 04:39:06;;;;;;;;;;;;;;;18.68;57.69;101356.19;5026605;28;1720;-37
2022/01/15 04:41:33;;;;;;;;;;;;;;;18.68;57.38;101358.00;5025169;28;1955;-37
2022/01/15 04:43:59;;;;;;;;;;;;;;;18.61;57.46;101371.03;5025054;28;1526;-37
2022/01/15 04:46:27;;;;;;;;;;;;;;;18.54;58.03;101376.97;5033254;28;1083;-36
2022/01/15 04:48:53;;;;;;;;;;;;;;;18.51;58.27;101372.72;5027439;28;1799;-37
2022/01/15 04:51:20;;;;;;;;;;;;;;;18.40;58.34;101370.84;5026750;28;1559;-36
2022/01/15 04:53:46;;;;;;;;;;;;;;;18.37;58.27;101387.16;5021838;28;1492;-37
2022/01/15 04:56:13;;;;;;;;;;;;;;;18.31;58.28;101381.41;5028303;28;1883;-37
2022/01/15 04:58:39;;;;;;;;;;;;;;;18.28;57.71;101394.06;5027018;28;1760;-36
2022/01/15 05:01:05;;;;;;;;;;;;;;;18.22;58.61;101388.28;5021626;28;1619;-36
2022/01/15 05:03:34;;;;;;;;;;;;;;;18.18;58.28;101392.16;5017700;28;1689;-37
2022/01/15 05:06:01;;;;;;;;;;;;;;;18.14;58.29;101386.19;5023885;28;1470;-36
2022/01/15 05:08:27;;;;;;;;;;;;;;;18.11;58.33;101396.28;5032998;28;1154;-37
2022/01/15 05:10:57;;;;;;;;;;;;;;;18.10;58.37;101395.41;5025501;28;2035;-37
2022/01/15 05:13:28;;;;;;;;;;;;;;;18.04;58.68;101391.38;5020751;28;1657;-35
2022/01/15 05:15:54;;;;;;;;;;;;;;;18.05;58.10;101400.28;5026834;28;1937;-37
2022/01/15 05:18:22;;;;;;;;;;;;;;;17.98;58.08;101396.34;5033118;28;1089;-37
2022/01/15 05:20:57;;;;;;;;;;;;;;;17.97;57.98;101395.50;5016272;28;1683;-36
2022/01/15 05:23:31;;;;;;;;;;;;;;;17.89;58.58;101385.34;5021803;28;1884;-37
2022/01/15 05:25:59;;;;;;;;;;;;;;;17.88;59.04;101390.81;5020612;28;1613;-36
2022/01/15 05:28:26;;;;;;;;;;;;;;;17.86;59.01;101387.38;5022815;28;1625;-36
2022/01/15 05:30:53;;;;;;;;;;;;;;;17.85;58.76;101401.75;5029911;28;2037;-37
2022/01/15 05:33:19;;;;;;;;;;;;;;;17.84;59.02;101400.03;5026619;28;999;-37
2022/01/15 05:35:46;;;;;;;;;;;;;;;17.81;58.82;101395.72;5017387;28;2016;-37
2022/01/15 05:38:18;;;;;;;;;;;;;;;17.77;59.38;101404.09;5032599;28;1898;-37
2022/01/15 05:40:52;;;;;;;;;;;;;;;17.75;59.14;101398.00;5023739;28;1788;-36
2022/01/15 05:43:19;;;;;;;;;;;;;;;17.75;59.11;101406.03;5022870;28;1582;-37
2022/01/15 05:45:46;;;;;;;;;;;;;;;17.70;59.18;101388.47;5029851;28;1007;-37
2022/01/15 05:48:16;;;;;;;;;;;;;;;17.70;58.82;101409.03;5020386;28;1733;-37
2022/01/15 05:50:44;;;;;;;;;;;;;;;17.73;59.13;101414.16;5023112;28;1414;-37
2022/01/15 05:53:11;;;;;;;;;;;;;;;17.73;58.71;101440.91;5021661;28;2043;-36
2022/01/15 05:55:43;;;;;;;;;;;;;;;17.68;58.81;101427.00;5026284;28;1280;-36
2022/01/15 05:58:11;;;;;;;;;;;;;;;17.78;58.97;101444.09;5023443;28;2118;-37
2022/01/15 06:00:38;;;;;;;;;;;;;;;17.68;58.59;101437.69;5024518;28;1842;-36
2022/01/15 06:03:05;;;;;;;;;;;;;;;17.68;59.16;101453.75;5027857;28;2050;-37
2022/01/15 06:05:32;;;;;;;;;;;;;;;17.66;58.75;101461.88;5026258;28;1618;-37
2022/01/15 06:07:58;;;;;;;;;;;;;;;17.63;59.02;101453.25;5024888;28;1029;-37
2022/01/15 06:10:25;;;;;;;;;;;;;;;17.63;58.89;101463.94;5025139;28;1825;-36
2022/01/15 06:12:53;;;;;;;;;;;;;;;17.66;59.28;101461.88;5031149;28;1628;-37
2022/01/15 06:15:19;;;;;;;;;;;;;;;17.75;58.90;101475.59;5028998;28;1900;-37
2022/01/15 06:17:46;;;;;;;;;;;;;;;18.06;58.34;101471.56;5025490;28;1887;-37
2022/01/15 06:20:20;;;;;;;;;;;;;;;18.46;57.34;101464.13;5027224;28;1560;-38
2022/01/15 06:22:46;;;;;;;;;;;;;;;18.89;56.75;101473.44;5029905;28;1883;-37
2022/01/15 06:25:13;;;;;;;;;;;;;;;19.06;55.72;101464.94;5028546;28;1584;-37
2022/01/15 06:27:39;;;;;;;;;;;;;;;19.18;55.91;101481.91;5032518;28;1513;-37
2022/01/15 06:30:07;;;;;;;;;;;;;;;19.18;56.62;101484.59;5031470;28;1510;-37
2022/01/15 06:32:36;;;;;;;;;;;;;;;19.22;55.62;101496.78;5032774;28;1349;-36
2022/01/15 06:35:03;;;;;;;;;;;;;;;19.24;55.50;101488.63;5033842;28;1642;-36
2022/01/15 06:37:30;;;;;;;;;;;;;;;19.33;56.17;101463.75;5033551;28;1898;-38
2022/01/15 06:39:56;;;;;;;;;;;;;;;19.77;55.41;101482.69;5033912;28;1598;-38
2022/01/15 06:42:27;;;;;;;;;;;;;;;19.61;55.75;101491.09;5032704;28;1134;-34
2022/01/15 06:45:01;;;;;;;;;;;;;;;19.60;56.26;101500.13;5032252;28;1831;-35
2022/01/15 06:47:29;;;;;;;;;;;;;;;19.65;55.28;101497.91;5033674;28;1735;-38
2022/01/15 06:49:55;;;;;;;;;;;;;;;19.64;55.98;101506.94;5034103;28;1647;-36
2022/01/15 06:52:24;;;;;;;;;;;;;;;19.65;56.32;101514.00;5035041;28;1509;-36
2022/01/15 06:54:51;;;;;;;;;;;;;;;19.62;55.51;101509.75;5035179;28;1396;-36
2022/01/15 06:57:17;;;;;;;;;;;;;;;19.45;55.68;101518.25;5033518;28;1906;-36
2022/01/15 06:59:44;;;;;;;;;;;;;;;19.43;56.00;101518.38;5033746;28;1333;-36
2022/01/15 07:02:11;;;;;;;;;;;;;;;19.39;55.89;101518.75;5029799;28;1525;-36
2022/01/15 07:04:39;;;;;;;;;;;;;;;19.33;56.51;101524.59;5032192;28;1576;-35
2022/01/15 07:09:47;;;;;;;;;;;;;;;19.18;58.01;101532.84;5034568;28;2487;-35
2022/01/15 07:12:16;;;;;;;;;;;;;;;19.13;57.48;101515.41;5034342;28;1915;-37
2022/01/15 07:14:43;;;;;;;;;;;;;;;19.15;56.79;101516.16;5026212;28;1515;-36
2022/01/15 07:17:18;;;;;;;;;;;;;;;19.08;56.88;101521.97;5033186;28;1910;-36
2022/01/15 07:20:00;;;;;;;;;;;;;;;19.02;57.24;101511.72;5032147;28;1614;-36
2022/01/15 07:22:36;;;;;;;;;;;;;;;18.91;57.56;101509.00;5030425;28;1396;-36
2022/01/15 07:25:03;;;;;;;;;;;;;;;18.91;58.99;101525.09;5030152;28;1454;-36
2022/01/15 07:27:30;;;;;;;;;;;;;;;18.92;58.15;101515.22;5032017;28;1392;-35
2022/01/15 07:29:57;;;;;;;;;;;;;;;18.82;59.35;101525.78;5031762;28;1555;-36
2022/01/15 07:32:23;;;;;;;;;;;;;;;18.78;59.04;101516.22;5032659;28;1656;-36
2022/01/15 07:34:50;;;;;;;;;;;;;;;18.82;60.24;101541.84;5030194;28;1931;-37
2022/01/15 07:37:16;;;;;;;;;;;;;;;18.83;60.92;101536.38;5026514;28;1910;-36
2022/01/15 07:40:05;;;;;;;;;;;;;;;18.77;60.81;101541.31;5030939;28;1442;-36
2022/01/15 07:42:35;;;;;;;;;;;;;;;18.68;60.72;101524.97;5028796;28;1375;-36
2022/01/15 07:45:05;;;;;;;;;;;;;;;18.63;60.73;101535.16;5033461;28;1103;-37
2022/01/15 07:47:32;;;;;;;;;;;;;;;18.58;60.11;101531.13;5030866;28;1593;-36
2022/01/15 07:49:59;;;;;;;;;;;;;;;18.52;61.10;101521.72;5032726;28;1517;-36
2022/01/15 07:52:26;;;;;;;;;;;;;;;18.58;60.83;101537.34;5032217;28;1551;-38
2022/01/15 07:54:54;;;;;;;;;;;;;;;18.53;60.15;101526.09;5025934;28;1514;-36
2022/01/15 07:57:21;;;;;;;;;;;;;;;18.56;60.86;101544.66;5026760;28;1980;-40
2022/01/15 07:59:55;;;;;;;;;;;;;;;18.55;61.56;101534.88;5029474;28;1544;-37
2022/01/15 08:02:25;;;;;;;;;;;;;;;18.60;61.61;101537.22;5025737;28;1645;-37
2022/01/15 08:04:53;;;;;;;;;;;;;;;18.65;63.09;101533.22;5030077;28;1636;-37
2022/01/15 08:07:19;;;;;;;;;;;;;;;18.62;62.86;101538.84;5032074;28;1338;-37
2022/01/15 08:09:46;;;;;;;;;;;;;;;18.59;62.50;101531.00;5025406;28;1458;-38
2022/01/15 08:12:13;;;;;;;;;;;;;;;18.63;63.79;101535.16;5027031;28;1681;-37
2022/01/15 08:14:40;;;;;;;;;;;;;;;18.74;62.08;101544.22;5025621;28;1563;-38
2022/01/15 08:17:06;;;;;;;;;;;;;;;18.78;63.33;101541.22;5029664;28;1971;-37
2022/01/15 08:19:33;;;;;;;;;;;;;;;18.74;63.11;101546.91;5031005;28;1284;-38
2022/01/15 08:21:59;;;;;;;;;;;;;;;18.79;63.24;101547.44;5030708;28;1614;-37
2022/01/15 08:24:26;;;;;;;;;;;;;;;18.78;63.25;101545.69;5006160;28;10679;-37
2022/01/15 08:26:52;;;;;;;;;;;;;;;18.85;62.82;101553.19;5010274;28;1519;-37
2022/01/15 08:29:32;;;;;;;;;;;;;;;18.91;62.49;101556.41;5006877;28;1446;-37
2022/01/15 08:31:58;;;;;;;;;;;;;;;19.20;61.85;101556.84;5008966;28;1364;-37
2022/01/15 08:34:25;;;;;;;;;;;;;;;19.25;63.04;101554.69;5010239;28;1127;-36
2022/01/15 08:36:51;;;;;;;;;;;;;;;19.34;61.96;101545.06;5010915;28;1923;-36
2022/01/15 08:39:18;;;;;;;;;;;;;;;19.41;62.60;101544.47;5008312;28;1654;-36
2022/01/15 08:41:48;;;;;;;;;;;;;;;19.52;62.07;101572.28;5011937;28;1296;-37
2022/01/15 08:44:14;;;;;;;;;;;;;;;19.56;62.17;101557.69;5008383;28;1628;-36
2022/01/15 08:46:42;;;;;;;;;;;;;;;19.63;63.26;101564.25;5014691;28;1469;-36
2022/01/15 08:49:09;;;;;;;;;;;;;;;19.65;63.45;101567.69;5012652;28;1604;-36
2022/01/15 08:51:35;;;;;;;;;;;;;;;19.64;61.88;101565.97;5012488;28;1591;-36
2022/01/15 08:54:02;;;;;;;;;;;;;;;19.66;62.75;101555.97;5013904;28;1361;-36
2022/01/15 08:56:28;;;;;;;;;;;;;;;19.62;62.70;101567.94;5011855;28;1544;-35
2022/01/15 08:58:55;;;;;;;;;;;;;;;19.58;61.94;101569.16;5018265;28;1914;-37
2022/01/15 09:01:21;;;;;;;;;;;;;;;19.60;63.07;101568.03;5011719;28;1600;-36
2022/01/15 09:03:49;;;;;;;;;;;;;;;19.57;62.01;101570.94;5008797;28;1623;-37
2022/01/15 09:06:17;;;;;;;;;;;;;;;19.65;62.53;101573.03;5007980;28;1488;-36
2022/01/15 09:08:45;;;;;;;;;;;;;;;19.56;62.67;101573.78;5011783;28;1568;-37
2022/01/15 09:11:17;;;;;;;;;;;;;;;19.56;61.66;101574.63;5015586;28;1356;-38
2022/01/15 09:13:44;;;;;;;;;;;;;;;19.56;62.04;101574.63;5015738;28;1758;-35
2022/01/15 09:16:10;;;;;;;;;;;;;;;19.58;61.37;101579.88;5001995;28;1995;-36
2022/01/15 09:18:37;;;;;;;;;;;;;;;19.62;60.98;101570.63;4997167;28;1972;-36
2022/01/15 09:21:05;;;;;;;;;;;;;;;19.58;61.48;101563.78;5002922;28;1678;-36
2022/01/15 09:23:31;;;;;;;;;;;;;;;19.57;61.70;101567.44;5001496;28;1485;-37
2022/01/15 09:25:59;;;;;;;;;;;;;;;19.53;62.05;101580.22;4997282;28;1563;-38
2022/01/15 09:31:09;;;;;;;;;;;;;;;19.49;61.51;101568.03;4997882;28;1090;-36
2022/01/15 09:33:36;;;;;;;;;;;;;;;19.51;62.05;101554.50;4998619;28;1641;-37
2022/01/15 09:36:03;;;;;;;;;;;;;;;19.55;62.23;101570.22;4998682;28;1692;-35
2022/01/15 09:38:32;;;;;;;;;;;;;;;19.51;62.70;101568.75;5002137;28;1969;-36
2022/01/15 09:40:58;;;;;;;;;;;;;;;19.48;62.92;101559.13;4999765;28;1603;-37
2022/01/15 09:43:25;;;;;;;;;;;;;;;19.47;62.04;101554.72;5004012;28;1594;-36
2022/01/15 09:45:52;;;;;;;;;;;;;;;19.51;62.45;101565.22;5005642;28;1163;-36
2022/01/15 09:48:20;;;;;;;;;;;;;;;19.57;61.47;101568.28;4999430;28;1689;-37
2022/01/15 09:50:47;;;;;;;;;;;;;;;19.48;62.62;101563.66;5000791;28;1365;-35
2022/01/15 09:53:16;;;;;;;;;;;;;;;19.48;61.42;101561.81;5001833;28;1382;-37
2022/01/15 09:55:46;;;;;;;;;;;;;;;19.43;61.43;101553.25;5002318;28;1430;-35
2022/01/15 09:58:12;;;;;;;;;;;;;;;19.45;62.48;101559.34;5002271;28;1910;-35
2022/01/15 10:00:45;;;;;;;;;;;;;;;19.43;61.19;101555.94;5002255;28;1573;-36
2022/01/15 10:03:12;;;;;;;;;;;;;;;19.43;62.51;101558.63;5001175;28;1612;-36
2022/01/15 10:05:38;;;;;;;;;;;;;;;19.47;62.19;101560.06;5008603;28;1513;-37
2022/01/15 10:08:07;;;;;;;;;;;;;;;19.44;61.51;101559.50;5009077;28;1761;-36
2022/01/15 10:10:34;;;;;;;;;;;;;;;19.35;62.16;101544.09;5012820;28;1451;-37
2022/01/15 10:13:13;;;;;;;;;;;;;;;19.38;62.65;101542.03;5013250;28;1355;-35
2022/01/15 10:15:40;;;;;;;;;;;;;;;19.41;62.47;101541.78;5013159;28;1944;-37
2022/01/15 10:18:17;;;;;;;;;;;;;;;19.46;62.38;101554.84;5013734;28;1898;-36
2022/01/15 10:20:44;;;;;;;;;;;;;;;19.50;62.36;101542.03;5011749;28;1439;-37
2022/01/15 10:23:15;;;;;;;;;;;;;;;19.59;62.33;101538.66;5011863;28;1571;-37
2022/01/15 10:25:41;;;;;;;;;;;;;;;19.56;62.17;101541.59;5012954;28;1639;-37
2022/01/15 10:28:09;;;;;;;;;;;;;;;19.53;62.01;101531.09;5014101;28;1364;-36
2022/01/15 10:30:38;;;;;;;;;;;;;;;19.42;61.88;101535.47;5015417;28;1962;-36
2022/01/15 10:33:05;;;;;;;;;;;;;;;19.34;61.98;101535.22;5014182;28;1680;-36
2022/01/15 10:35:32;;;;;;;;;;;;;;;19.32;62.32;101533.59;5013261;28;1573;-37
2022/01/15 10:38:03;;;;;;;;;;;;;;;19.32;62.14;101523.75;5014642;28;1976;-37
2022/01/15 10:40:36;;;;;;;;;;;;;;;19.32;61.79;101515.69;5013966;28;1359;-36
2022/01/15 10:43:03;;;;;;;;;;;;;;;19.39;63.54;101519.59;5011848;28;1452;-37
2022/01/15 10:45:31;;;;;;;;;;;;;;;19.37;62.21;101504.59;5015077;28;1364;-36
2022/01/15 10:48:01;;;;;;;;;;;;;;;19.47;62.36;101524.38;5013946;28;1627;-37
2022/01/15 10:50:29;;;;;;;;;;;;;;;19.41;63.92;101514.13;5009511;28;1435;-37
2022/01/15 10:52:56;;;;;;;;;;;;;;;19.42;63.52;101516.69;5008909;28;1365;-37
2022/01/15 10:55:27;;;;;;;;;;;;;;;19.42;63.39;101514.00;5010587;28;1241;-36
2022/01/15 10:57:55;;;;;;;;;;;;;;;19.32;63.21;101504.09;5012914;28;1910;-36
2022/01/15 11:00:23;;;;;;;;;;;;;;;19.27;63.33;101505.31;5010425;28;1559;-38
2022/01/15 11:02:50;;;;;;;;;;;;;;;19.31;62.28;101505.94;5010969;28;2044;-36
2022/01/15 11:05:35;;;;;;;;;;;;;;;19.32;64.02;101502.28;5012344;28;2068;-37
2022/01/15 11:08:17;;;;;;;;;;;;;;;19.35;63.63;101512.75;5011021;28;1164;-37
2022/01/15 11:10:45;;;;;;;;;;;;;;;19.30;63.33;101504.25;5012343;28;1508;-36
2022/01/15 11:13:12;;;;;;;;;;;;;;;19.37;62.22;101497.41;5008608;28;1508;-38
2022/01/15 11:15:39;;;;;;;;;;;;;;;19.28;62.60;101490.94;5012016;28;1368;-36
2022/01/15 11:18:06;;;;;;;;;;;;;;;19.30;63.43;101476.53;5010804;28;1991;-36
2022/01/15 11:20:33;;;;;;;;;;;;;;;19.26;62.52;101484.00;5013317;28;1483;-37
2022/01/15 11:23:01;;;;;;;;;;;;;;;19.29;62.86;101486.44;5012567;28;1452;-37
2022/01/15 11:25:29;;;;;;;;;;;;;;;19.32;63.23;101471.91;5013286;28;1675;-36
2022/01/15 11:27:56;;;;;;;;;;;;;;;19.27;63.41;101466.94;5013072;28;1611;-36
2022/01/15 11:30:23;;;;;;;;;;;;;;;19.21;63.92;101483.50;5013862;28;1289;-36
2022/01/15 11:32:50;;;;;;;;;;;;;;;19.20;63.17;101476.41;5010675;28;1510;-35
2022/01/15 11:35:17;;;;;;;;;;;;;;;19.27;62.62;101473.13;5012887;28;1563;-35
2022/01/15 11:37:46;;;;;;;;;;;;;;;19.28;63.32;101484.72;5011007;28;1975;-36
2022/01/15 11:40:31;;;;;;;;;;;;;;;19.38;64.10;101458.91;5010752;28;1358;-38
2022/01/15 11:43:21;;;;;;;;;;;;;;;19.27;62.85;101469.59;4999332;28;1408;-35
2022/01/15 11:45:47;;;;;;;;;;;;;;;19.27;63.68;101473.13;5011830;28;1301;-37
2022/01/15 11:48:21;;;;;;;;;;;;;;;19.25;64.13;101474.22;5006173;28;1881;-36
2022/01/15 11:51:07;;;;;;;;;;;;;;;19.21;64.28;101472.78;5002940;28;1798;-35
2022/01/15 11:53:46;;;;;;;;;;;;;;;19.14;63.49;101479.56;5003650;28;2089;-35
2022/01/15 11:56:16;;;;;;;;;;;;;;;19.06;63.10;101475.69;4998497;28;1087;-35
2022/01/15 11:58:44;;;;;;;;;;;;;;;19.05;63.28;101479.31;5005844;28;1906;-35
2022/01/15 12:01:25;;;;;;;;;;;;;;;18.99;63.36;101471.75;5000735;28;1781;-35
2022/01/15 12:03:52;;;;;;;;;;;;;;;19.02;64.37;101471.53;5006797;28;2022;-35
2022/01/15 12:06:18;;;;;;;;;;;;;;;19.13;63.64;101476.03;5003791;28;1692;-34
2022/01/15 12:08:44;;;;;;;;;;;;;;;19.07;64.30;101477.38;4998461;28;1567;-34
2022/01/15 12:11:11;;;;;;;;;;;;;;;19.03;64.06;101465.19;5003558;28;1081;-35
2022/01/15 12:13:48;;;;;;;;;;;;;;;19.06;63.42;101464.09;5005770;28;1743;-37
2022/01/15 12:16:26;;;;;;;;;;;;;;;19.04;63.09;101466.91;5005795;28;1944;-34
2022/01/15 12:18:53;;;;;;;;;;;;;;;19.08;63.38;101464.84;5004335;28;1978;-36
2022/01/15 12:21:38;;;;;;;;;;;;;;;18.97;63.05;101454.94;4998057;28;1680;-35
2022/01/15 12:24:20;;;;;;;;;;;;;;;18.99;63.57;101460.19;5001069;28;1799;-35
2022/01/15 12:26:59;;;;;;;;;;;;;;;18.97;62.90;101462.97;5000523;28;1648;-36
2022/01/15 12:29:27;;;;;;;;;;;;;;;18.98;62.66;101467.38;5001450;28;1763;-37
2022/01/15 12:31:53;;;;;;;;;;;;;;;18.96;62.52;101450.56;5003059;28;1003;-35
2022/01/15 12:34:24;;;;;;;;;;;;;;;19.00;63.75;101462.75;5002959;28;1729;-36
2022/01/15 12:36:51;;;;;;;;;;;;;;;18.95;62.94;101470.28;5006749;28;1830;-36
2022/01/15 12:39:21;;;;;;;;;;;;;;;18.97;63.04;101454.09;5004677;28;1969;-35
2022/01/15 12:41:52;;;;;;;;;;;;;;;18.95;63.35;101451.50;4999708;28;1642;-36
2022/01/15 12:44:19;;;;;;;;;;;;;;;18.89;62.84;101446.63;5006184;28;1842;-35
2022/01/15 12:46:53;;;;;;;;;;;;;;;18.97;63.32;101454.94;4996991;28;1080;-35
2022/01/15 12:49:20;;;;;;;;;;;;;;;18.96;62.40;101450.56;5001957;28;1091;-36
2022/01/15 12:51:46;;;;;;;;;;;;;;;18.99;63.74;101452.97;5006788;28;1861;-36
2022/01/15 12:54:13;;;;;;;;;;;;;;;18.99;62.52;101444.09;5003704;28;1998;-37
2022/01/15 12:56:39;;;;;;;;;;;;;;;18.99;63.13;101441.41;4996295;28;1645;-35
2022/01/15 12:59:06;;;;;;;;;;;;;;;18.90;63.32;101437.63;5003067;28;1906;-35
2022/01/15 13:01:32;;;;;;;;;;;;;;;18.95;62.93;101446.16;5002813;28;1439;-37
2022/01/15 13:04:10;;;;;;;;;;;;;;;18.96;62.32;101430.91;5006275;28;2078;-36
2022/01/15 13:06:36;;;;;;;;;;;;;;;18.91;63.67;101439.31;4999290;28;1652;-36
2022/01/15 13:09:03;;;;;;;;;;;;;;;18.92;63.15;101434.81;5010966;28;1753;-35
2022/01/15 13:11:31;;;;;;;;;;;;;;;18.89;62.95;101430.56;5003521;28;1535;-37
2022/01/15 13:14:02;;;;;;;;;;;;;;;18.92;62.58;101438.38;5002807;28;1754;-35
2022/01/15 13:16:30;;;;;;;;;;;;;;;18.85;63.24;101450.53;5005043;28;1426;-37
2022/01/15 13:18:58;;;;;;;;;;;;;;;18.86;62.58;101438.81;4999405;28;1983;-36
2022/01/15 13:21:28;;;;;;;;;;;;;;;18.87;63.62;101449.41;5007182;28;1614;-37